createdAt,value
2022-12-20T00:01:50.661Z,1.66
2022-12-20T00:06:52.418Z,1.53
2022-12-20T00:11:54.020Z,1.52
2022-12-20T00:16:55.651Z,1.56
2022-12-20T00:21:57.353Z,1.50
2022-12-20T00:26:58.949Z,1.55
2022-12-20T00:32:00.877Z,1.57
2022-12-20T00:37:02.511Z,1.53
2022-12-20T00:42:04.215Z,1.52
2022-12-20T00:47:06.225Z,1.54
2022-12-20T00:52:07.983Z,1.42
2022-12-20T00:57:09.728Z,1.38
2022-12-20T01:02:11.554Z,1.47
2022-12-20T01:07:13.451Z,1.50
2022-12-20T01:12:15.151Z,1.50
2022-12-20T01:17:16.815Z,1.52
2022-12-20T01:22:18.501Z,1.57
2022-12-20T01:27:20.138Z,1.55
2022-12-20T01:32:21.803Z,1.56
2022-12-20T01:37:23.531Z,1.51
2022-12-20T01:42:25.206Z,1.28
2022-12-20T01:47:31.662Z,1.15
2022-12-20T01:52:40.126Z,1.06
2022-12-20T01:58:12.862Z,0.90
2022-12-20T02:03:17.879Z,0.93
2022-12-20T02:08:20.669Z,0.96
2022-12-20T02:13:51.463Z,0.88
2022-12-20T02:18:59.163Z,0.85
2022-12-20T02:24:32.089Z,0.77
2022-12-20T02:29:37.668Z,0.77
2022-12-20T02:34:41.580Z,0.81
2022-12-20T02:39:46.325Z,0.81
2022-12-20T02:45:17.154Z,0.89
2022-12-20T02:50:23.640Z,0.95
2022-12-20T02:55:37.887Z,1.04
2022-12-20T03:00:45.854Z,1.05
2022-12-20T03:05:49.237Z,0.95
2022-12-20T03:10:52.809Z,1.05
2022-12-20T03:15:54.492Z,1.07
2022-12-20T03:20:56.123Z,1.15
2022-12-20T03:25:57.751Z,1.10
2022-12-20T03:30:59.518Z,1.20
2022-12-20T03:36:01.188Z,1.12
2022-12-20T03:41:02.840Z,1.20
2022-12-20T03:46:04.534Z,1.23
2022-12-20T03:51:06.439Z,1.21
2022-12-20T03:56:08.369Z,1.21
2022-12-20T04:01:18.565Z,1.15
2022-12-20T04:06:20.757Z,1.24
2022-12-20T04:11:22.733Z,1.33
2022-12-20T04:16:26.697Z,1.47
2022-12-20T04:21:31.197Z,1.55
2022-12-20T04:26:32.898Z,1.60
2022-12-20T04:31:34.668Z,1.68
2022-12-20T04:36:36.423Z,1.69
2022-12-20T04:41:38.079Z,1.73
2022-12-20T04:46:39.765Z,1.81
2022-12-20T04:51:41.617Z,1.82
2022-12-20T04:56:43.261Z,1.75
2022-12-20T05:01:44.927Z,1.75
2022-12-20T05:06:46.694Z,1.82
2022-12-20T05:11:48.386Z,1.82
2022-12-20T05:16:50.109Z,1.66
2022-12-20T05:22:10.302Z,1.60
2022-12-20T05:27:11.906Z,1.66
2022-12-20T05:32:13.499Z,1.76
2022-12-20T05:37:15.212Z,1.79
2022-12-20T05:42:16.899Z,1.81
2022-12-20T05:47:18.558Z,1.65
2022-12-20T05:52:20.221Z,1.49
2022-12-20T05:57:21.946Z,1.59
2022-12-20T06:02:23.661Z,1.68
2022-12-20T06:07:26.041Z,1.71
2022-12-20T06:12:27.691Z,1.76
2022-12-20T06:17:29.328Z,1.70
2022-12-20T06:22:30.964Z,1.57
2022-12-20T06:27:32.619Z,1.67
2022-12-20T06:32:34.408Z,1.78
2022-12-20T06:37:36.465Z,1.80
2022-12-20T06:42:38.299Z,1.64
2022-12-20T06:47:39.950Z,1.62
2022-12-20T06:52:41.679Z,1.76
2022-12-20T06:57:43.436Z,1.77
2022-12-20T07:02:45.570Z,1.68
2022-12-20T07:07:48.161Z,1.76
2022-12-20T07:12:50.239Z,1.74
2022-12-20T07:17:51.926Z,1.71
2022-12-20T07:22:54.092Z,1.72
2022-12-20T07:27:56.765Z,1.77
2022-12-20T07:32:59.166Z,1.80
2022-12-20T07:38:00.927Z,1.66
2022-12-20T07:43:02.719Z,1.60
2022-12-20T07:48:13.717Z,1.73
2022-12-20T07:53:18.169Z,1.78
2022-12-20T07:58:20.236Z,1.74
2022-12-20T08:03:26.556Z,1.82
2022-12-20T08:08:28.813Z,1.89
2022-12-20T08:13:32.917Z,1.92
2022-12-20T08:18:34.739Z,2.03
2022-12-20T08:23:36.716Z,2.14
2022-12-20T08:28:38.687Z,2.32
2022-12-20T08:33:40.961Z,2.31
2022-12-20T08:38:43.038Z,2.09
2022-12-20T08:43:44.944Z,2.15
2022-12-20T08:48:46.935Z,2.35
2022-12-20T08:53:48.847Z,2.49
2022-12-20T08:58:50.761Z,2.59
2022-12-20T09:03:52.840Z,2.61
2022-12-20T09:08:55.771Z,2.70
2022-12-20T09:13:59.695Z,2.66
2022-12-20T09:19:05.411Z,2.72
2022-12-20T09:24:09.650Z,2.68
2022-12-20T09:29:11.341Z,2.58
2022-12-20T09:34:13.284Z,2.61
2022-12-20T09:39:15.107Z,2.47
2022-12-20T09:44:22.570Z,2.34
2022-12-20T09:49:30.099Z,2.37
2022-12-20T09:54:58.759Z,2.51
2022-12-20T10:00:00.388Z,2.57
2022-12-20T10:05:03.056Z,2.68
2022-12-20T10:10:47.012Z,2.60
2022-12-20T10:15:56.423Z,2.49
2022-12-20T10:21:07.647Z,2.56
2022-12-20T10:26:10.750Z,2.46
2022-12-20T10:31:16.259Z,2.81
2022-12-20T10:36:28.136Z,2.88
2022-12-20T10:41:52.143Z,2.98
2022-12-20T10:46:59.440Z,3.00
2022-12-20T10:52:09.263Z,3.09
2022-12-20T10:57:31.839Z,3.15
2022-12-20T11:02:41.680Z,3.29
2022-12-20T11:08:33.470Z,3.38
2022-12-20T11:13:23.001Z,3.54
2022-12-20T11:18:36.905Z,3.43
2022-12-20T11:23:41.897Z,3.25
2022-12-20T11:29:18.191Z,3.27
2022-12-20T11:34:24.630Z,3.37
2022-12-20T11:39:32.034Z,3.52
2022-12-20T11:45:01.783Z,3.74
2022-12-20T11:50:33.312Z,3.88
2022-12-20T11:55:42.947Z,3.91
2022-12-20T12:00:55.278Z,3.99
2022-12-20T12:06:03.623Z,4.07
2022-12-20T12:16:51.120Z,4.41
2022-12-20T12:22:02.260Z,4.62
2022-12-20T12:27:04.067Z,4.89
2022-12-20T12:32:15.895Z,5.03
2022-12-20T12:37:36.223Z,5.14
2022-12-20T12:43:19.858Z,4.97
2022-12-20T12:48:24.396Z,4.88
2022-12-20T12:53:49.795Z,4.76
2022-12-20T12:59:20.554Z,4.85
2022-12-20T13:04:26.635Z,5.01
2022-12-20T13:09:28.239Z,5.21
2022-12-20T13:14:30.237Z,5.32
2022-12-20T13:19:37.196Z,5.31
2022-12-20T13:24:59.974Z,5.13
2022-12-20T13:30:07.400Z,5.12
2022-12-20T13:35:24.416Z,5.21
2022-12-20T13:40:35.309Z,5.40
2022-12-20T13:45:39.685Z,5.45
2022-12-20T13:50:50.917Z,5.19
2022-12-20T13:55:52.466Z,4.73
2022-12-20T14:01:03.944Z,5.07
2022-12-20T14:06:11.952Z,5.08
2022-12-20T14:11:17.222Z,5.07
2022-12-20T14:16:20.296Z,5.06
2022-12-20T14:21:22.159Z,5.02
2022-12-20T14:26:30.887Z,4.99
2022-12-20T14:31:32.473Z,4.76
2022-12-20T14:36:34.676Z,4.61
2022-12-20T14:41:39.346Z,4.43
2022-12-20T14:46:49.054Z,4.31
2022-12-20T14:51:51.908Z,4.31
2022-12-20T14:56:54.173Z,4.39
2022-12-20T15:01:56.019Z,4.48
2022-12-20T15:06:58.118Z,4.35
2022-12-20T15:12:00.173Z,4.35
2022-12-20T15:17:02.939Z,4.28
2022-12-20T15:22:04.839Z,4.30
2022-12-20T15:27:14.004Z,4.35
2022-12-20T15:32:25.545Z,4.38
2022-12-20T15:37:27.135Z,4.22
2022-12-20T15:42:28.761Z,3.98
2022-12-20T15:47:30.453Z,4.05
2022-12-20T15:52:32.881Z,4.08
2022-12-20T15:57:34.729Z,4.13
2022-12-20T16:02:36.516Z,4.12
2022-12-20T16:07:38.233Z,4.15
2022-12-20T16:12:39.939Z,4.18
2022-12-20T16:17:41.571Z,4.29
2022-12-20T16:22:43.334Z,4.33
2022-12-20T16:27:45.071Z,4.29
2022-12-20T16:32:46.699Z,4.33
2022-12-20T16:37:48.549Z,4.30
2022-12-20T16:42:50.269Z,4.24
2022-12-20T16:47:53.200Z,4.26
2022-12-20T16:52:54.889Z,4.20
2022-12-20T16:57:56.531Z,4.25
2022-12-20T17:02:59.268Z,4.31
2022-12-20T17:08:01.007Z,4.30
2022-12-20T17:13:02.618Z,4.32
2022-12-20T17:18:04.384Z,4.36
2022-12-20T17:28:26.392Z,4.45
2022-12-20T17:33:28.093Z,4.48
2022-12-20T17:38:29.732Z,4.49
2022-12-20T17:43:31.339Z,4.50
2022-12-20T17:48:36.627Z,4.52
2022-12-20T17:53:40.668Z,4.52
2022-12-20T17:58:45.111Z,4.41
2022-12-20T18:04:05.346Z,4.33
2022-12-20T18:09:18.713Z,4.28
2022-12-20T18:14:20.348Z,4.42
2022-12-20T18:19:21.953Z,4.46
2022-12-20T18:24:23.859Z,4.45
2022-12-20T18:29:25.550Z,4.54
2022-12-20T18:34:27.169Z,4.54
2022-12-20T18:39:28.744Z,4.57
2022-12-20T18:44:35.750Z,4.64
2022-12-20T18:49:37.683Z,4.66
2022-12-20T18:54:39.262Z,4.75
2022-12-20T18:59:41.923Z,4.77
2022-12-20T19:04:43.662Z,4.83
2022-12-20T19:09:45.347Z,4.82
2022-12-20T19:14:47.413Z,4.82
2022-12-20T19:19:49.043Z,4.69
2022-12-20T19:24:52.135Z,4.47
2022-12-20T19:29:54.531Z,4.41
2022-12-20T19:34:56.187Z,4.52
2022-12-20T19:39:57.830Z,4.56
2022-12-20T19:44:59.516Z,4.52
2022-12-20T19:50:01.295Z,4.63
2022-12-20T19:55:02.894Z,4.68
2022-12-20T20:00:08.579Z,4.72
2022-12-20T20:05:14.808Z,4.66
2022-12-20T20:10:17.778Z,4.63
2022-12-20T20:15:19.422Z,4.62
2022-12-20T20:20:21.626Z,4.70
2022-12-20T20:25:23.225Z,4.72
2022-12-20T20:30:24.898Z,4.79
2022-12-20T20:35:26.504Z,4.63
2022-12-20T20:40:28.181Z,4.63
2022-12-20T20:45:30.666Z,4.66
2022-12-20T20:50:32.482Z,4.65
2022-12-20T20:55:34.774Z,4.67
2022-12-20T21:00:36.517Z,4.64
2022-12-20T21:06:33.024Z,4.60
2022-12-20T21:11:04.742Z,4.66
2022-12-20T21:16:16.135Z,4.75
2022-12-20T21:21:21.511Z,4.77
2022-12-20T21:26:25.328Z,4.81
2022-12-20T21:31:27.818Z,4.81
2022-12-20T21:36:29.485Z,4.60
2022-12-20T21:41:31.444Z,4.59
2022-12-20T21:46:33.744Z,4.65
2022-12-20T21:51:35.476Z,4.66
2022-12-20T21:56:37.154Z,4.67
2022-12-20T22:01:38.974Z,4.75
2022-12-20T22:06:42.129Z,4.79
2022-12-20T22:11:43.764Z,4.86
2022-12-20T22:16:45.539Z,4.93
2022-12-20T22:21:49.784Z,4.92
2022-12-20T22:26:55.451Z,4.97
2022-12-20T22:31:57.066Z,5.02
2022-12-20T22:36:58.857Z,5.07
2022-12-20T22:42:00.454Z,5.09
2022-12-20T22:47:02.165Z,5.14
2022-12-20T22:52:07.813Z,5.16
2022-12-20T22:57:12.017Z,5.18
2022-12-20T23:02:13.857Z,5.16
2022-12-20T23:07:15.699Z,5.16
2022-12-20T23:12:36.141Z,5.20
2022-12-20T23:17:37.752Z,5.24
2022-12-20T23:22:40.192Z,5.21
2022-12-20T23:27:43.808Z,4.99
2022-12-20T23:32:45.698Z,4.99
2022-12-20T23:37:48.085Z,4.92
2022-12-20T23:42:53.103Z,5.00
2022-12-20T23:47:54.726Z,5.04
2022-12-20T23:52:56.343Z,5.01
2022-12-20T23:57:57.976Z,5.09
